Shinryu Maru — JD3969 — position and weather

sailwx.info

Track history (hours):
 
Tides and Currents Weather Stations Pressure Air Temp Water Temp Dewpoint Dewpoint Depression Visibility Wind Speed Wind Dir Waves Ship Positions

Shinryu Maru

Last reported at 2018-Jun-25 11:30 UTC. Time now 2018-Jun-25 11:35 UTC.
Position N 34°18' E 134°59'.

Length 84 m; draft 4.9 m.

Type: Cargo ship. MMSI: 431007228.

Date/timePositionNaut miles runAvg speedWind from/ knotsBaromVisibWave heightAir tempDewpointWater temp
2018-Jun-25 11:30N 34°18' E 134°59'714.4
2018-Jun-25 11:00N 34°11' E 134°60'714.2
2018-Jun-25 10:30N 34°04' E 135°01'814.7
2018-Jun-25 10:00N 33°56' E 135°02'813.7
2018-Jun-25 09:26N 33°49' E 135°06'  
2018-Jun-22 00:59N 33°51' E 135°03'613.1
2018-Jun-22 00:30N 33°57' E 135°02'613.2
2018-Jun-22 00:00N 34°03' E 135°01'713.2
2018-Jun-21 23:30N 34°10' E 135°00'713.6
2018-Jun-21 23:01N 34°17' E 134°58'713.5
2018-Jun-21 22:30N 34°23' E 134°60'713.6
2018-Jun-21 22:00N 34°30' E 135°02'612.1
2018-Jun-21 21:29N 34°36' E 135°02'612.3
2018-Jun-21 21:00N 34°35' E 134°55'611.7
2018-Jun-21 20:30N 34°33' E 134°48'612.0
2018-Jun-21 20:01N 34°31' E 134°42'712.5
2018-Jun-21 19:25N 34°28' E 134°33'612.6
2018-Jun-21 18:55N 34°25' E 134°26'512.5
2018-Jun-21 18:30N 34°24' E 134°20'23 0.6
2018-Jun-20 05:01N 34°44' E 134°34'010.5
2018-Jun-20 05:01N 34°44' E 134°34'2 0.1
2018-Jun-19 16:12N 34°45' E 134°36'312.0
2018-Jun-19 15:56N 34°43' E 134°32'1 0.0
2018-Jun-18 06:25N 34°44' E 134°34'4 0.2
2018-Jun-17 10:06N 34°47' E 134°38'1 7.1
2018-Jun-17 09:58N 34°46' E 134°38'1 0.2
2018-Jun-17 07:06N 34°45' E 134°37'1 8.3
2018-Jun-17 06:58N 34°45' E 134°36'  
Track history (hours):
 
Tides and Currents Weather Stations Pressure Air Temp Water Temp Dewpoint Dewpoint Depression Visibility Wind Speed Wind Dir Waves Ship Positions

Shinryu Maru

Last reported at 2018-Jun-25 11:30 UTC. Time now 2018-Jun-25 11:35 UTC.
Position N 34°18' E 134°59'.

Length 84 m; draft 4.9 m.

Type: Cargo ship. MMSI: 431007228.

Date/timePositionNaut miles runAvg speedWind from/ knotsBaromVisibWave heightAir tempDewpointWater temp
2018-Jun-25 11:30N 34°18' E 134°59'714.4
2018-Jun-25 11:00N 34°11' E 134°60'714.2
2018-Jun-25 10:30N 34°04' E 135°01'814.7
2018-Jun-25 10:00N 33°56' E 135°02'813.7
2018-Jun-25 09:26N 33°49' E 135°06'  
2018-Jun-22 00:59N 33°51' E 135°03'613.1
2018-Jun-22 00:30N 33°57' E 135°02'613.2
2018-Jun-22 00:00N 34°03' E 135°01'713.2
2018-Jun-21 23:30N 34°10' E 135°00'713.6
2018-Jun-21 23:01N 34°17' E 134°58'713.5
2018-Jun-21 22:30N 34°23' E 134°60'713.6
2018-Jun-21 22:00N 34°30' E 135°02'612.1
2018-Jun-21 21:29N 34°36' E 135°02'612.3
2018-Jun-21 21:00N 34°35' E 134°55'611.7
2018-Jun-21 20:30N 34°33' E 134°48'612.0
2018-Jun-21 20:01N 34°31' E 134°42'712.5
2018-Jun-21 19:25N 34°28' E 134°33'612.6
2018-Jun-21 18:55N 34°25' E 134°26'512.5
2018-Jun-21 18:30N 34°24' E 134°20'23 0.6
2018-Jun-20 05:01N 34°44' E 134°34'010.5
2018-Jun-20 05:01N 34°44' E 134°34'2 0.1
2018-Jun-19 16:12N 34°45' E 134°36'312.0
2018-Jun-19 15:56N 34°43' E 134°32'1 0.0
2018-Jun-18 06:25N 34°44' E 134°34'4 0.2
2018-Jun-17 10:06N 34°47' E 134°38'1 7.1
2018-Jun-17 09:58N 34°46' E 134°38'1 0.2
2018-Jun-17 07:06N 34°45' E 134°37'1 8.3
2018-Jun-17 06:58N 34°45' E 134°36'  

Dump ship's entire track history